Weather observations for the past three days for
Gainesville, Gainesville Municipal Airport
Metric (Imperial)
Date Time (cdt) Wind (kph) Vis. (km) Weather Sky Cond. Temperature (ºC) Relative Humidity Wind Chill (°C) Heat Index (°C) Pressure Precipitation (cm)
Air Dwpt 6 hour altimeter (cm) sea level (mb) 1 hr 3 hr 6 hr
Max. Min.
15 06:55 S 13 16.09 Fair CLR 24.6 20 28.7 24.5 76% 25 76.3 0.0
15 06:35 S 13 16.09 Fair CLR 24.6 20 76% 25 76.3 0.0
15 06:15 S 13 16.09 Fair CLR 24.7 20 75% 26 76.3 0.0
15 05:55 S 11 16.09 Fair CLR 24.8 20.1 75% 26 76.28 0.0
15 05:35 S 13 16.09 Fair CLR 25 20.1 74% 26 76.25 0.0
15 05:15 S 11 16.09 Fair CLR 25 20.1 74% 26 76.25 0.0
15 04:55 S 11 16.09 Fair CLR 25.1 20 73% 26 76.25 0.0
15 04:35 S 11 16.09 Fair CLR 25.1 20 73% 26 76.25 0.0
15 04:15 S 9 16.09 Fair CLR 25.5 19.8 71% 27 76.25 0.0
15 03:55 S 9 16.09 Fair CLR 25.5 19.6 70% 27 76.25 0.0
15 03:35 S 9 16.09 Fair CLR 25.5 19.6 70% 27 76.25 0.0
15 03:15 S 7 16.09 Fair CLR 25.6 19.6 70% 27 76.28 0.0
15 02:55 S 6 16.09 Fair CLR 25.7 19.6 69% 27 76.28 0.0
15 02:35 S 9 16.09 Fair CLR 26 19.6 68% 27 76.28 0.0
15 02:15 S 7 16.09 Fair CLR 26.5 19.6 66% 28 76.28 0.0
15 01:55 S 9 16.09 Fair CLR 27 19.5 64% 28 76.3 0.0
15 01:35 S 11 16.09 Fair CLR 27.6 19.5 61% 29 76.3 0.0
15 01:15 S 11 16.09 Fair CLR 28.2 19.5 59% 30 76.3 0.0
15 00:55 S 15 16.09 Fair CLR 28.8 19.2 35.1 28.8 56% 30 76.3 0.0
15 00:35 S 15 16.09 Fair CLR 29 19.1 55% 30 76.3 0.0
15 00:15 S 15 16.09 Fair CLR 29.4 18.9 53% 31 76.3 0.0
14 23:55 S 17 G 26 16.09 Fair CLR 29.6 18.5 51% 31 76.3 0.0
14 23:35 S 15 16.09 Fair CLR 30 18.2 49% 31 76.3 0.0
14 23:15 S 15 16.09 Fair CLR 30.3 18.1 48% 31 76.28 0.0
14 22:55 S 15 16.09 Fair CLR 30.6 18 47% 31 76.28 0.0
14 22:35 S 15 16.09 Fair CLR 30.5 18.2 48% 31 76.28 0.0
14 22:15 S 11 16.09 Fair CLR 30.4 18.6 49% 32 76.28 0.0
14 21:55 S 9 16.09 Fair CLR 30.8 18.7 48% 32 76.28 0.0
14 21:35 S 11 16.09 Fair CLR 31 18.8 48% 32 76.25 0.0
14 21:15 S 9 16.09 Fair CLR 31.1 18.5 47% 32 76.23 0.0
14 20:55 S 9 11.27 Fair CLR 31.3 17.8 44% 32 76.23 0.0
14 20:35 S 11 11.27 Fair CLR 32.3 17.4 41% 33 76.23 0.0
14 20:15 S 13 11.27 Fair CLR 33.4 17.2 38% 34 76.23 0.0
14 19:55 S 15 11.27 Fair CLR 34 17.6 38% 35 76.23 0.0
14 19:35 S 15 11.27 Partly Cloudy SCT070 34.6 17.7 37% 36 76.23 0.0
14 19:15 S 19 11.27 Partly Cloudy SCT070 35 17.9 36% 36 76.23 0.0
14 18:55 S 15 16.09 Fair CLR 35.2 17.8 36.3 33.3 36% 36 76.23 0.0
14 18:35 S 20 G 28 16.09 Fair CLR 35.5 18 35% 37 76.23 0.0
14 18:15 S 20 16.09 Fair CLR 35.6 18.6 37% 37 76.25 0.0
14 17:55 SW 24 G 31 16.09 Partly Cloudy SCT070 36 18.5 36% 38 76.23 0.0
14 17:35 SW 15 16.09 Partly Cloudy SCT070 35.5 18.7 37% 37 76.25 0.0
14 17:15 SW 19 G 31 11.27 Partly Cloudy SCT070 35.9 18.4 36% 38 76.25 0.0
14 16:55 SW 20 G 30 16.09 Partly Cloudy SCT060 35.8 19.3 38% 38 76.25 0.0
14 16:35 SW 22 G 30 11.27 Partly Cloudy SCT060 35.9 19.1 37% 38 76.28 0.0
14 16:15 S 20 G 33 16.09 Partly Cloudy SCT060 35.8 19.4 38% 38 76.28 0.0
14 15:55 S 26 16.09 Partly Cloudy SCT060 35.8 19.1 37% 38 76.3 0.0
14 15:35 SW 22 G 31 16.09 Partly Cloudy SCT060 34.9 19.2 40% 37 76.33 0.0
14 15:15 S 17 G 39 16.09 Partly Cloudy SCT055 35.8 19.3 38% 38 76.33 0.0
14 14:55 SW 20 G 31 16.09 Partly Cloudy SCT055 35.8 19.2 38% 38 76.35 0.0
14 14:35 SW 15 G 26 16.09 Partly Cloudy SCT055 35 19.7 41% 37 76.4 0.0
14 14:15 SW 20 G 28 16.09 Partly Cloudy SCT055 34.7 20 42% 37 76.43 0.0
14 13:55 S 22 G 28 16.09 Mostly Cloudy BKN049 34.4 20.3 44% 37 76.45 0.0
14 13:35 S 17 16.09 Partly Cloudy SCT049 34.1 20.5 45% 37 76.48 0.0
14 13:15 SW 15 G 30 16.09 Partly Cloudy SCT046 34.1 20.6 45% 37 76.48 0.0
14 12:55 SW 9 16.09 Partly Cloudy SCT046 33.9 21 34 23.1 47% 37 76.5 0.0
14 12:35 SW 13 16.09 Partly Cloudy SCT039 32.9 21.2 50% 36 76.53 0.0
14 12:15 W 9 G 30 16.09 Partly Cloudy SCT039 32.4 21 51% 35 76.53 0.0
14 11:55 SW 11 G 30 16.09 Fair CLR 32.3 21.4 53% 36 76.56 0.0
14 11:35 SW 11 G 17 16.09 Fair CLR 31.8 21.4 54% 35 76.56 0.0
14 11:15 SW 13 16.09 Fair CLR 31.6 21.5 55% 35 76.58 0.0
14 10:55 SW 22 16.09 Fair CLR 30.8 21.7 58% 34 76.58 0.0
14 10:35 SW 15 16.09 Fair CLR 30.2 21.6 60% 33 76.58 0.0
14 10:15 SW 13 16.09 Fair CLR 29.7 21.6 62% 33 76.61 0.0
14 09:55 SW 20 G 28 16.09 Fair CLR 29 21.7 65% 32 76.61 0.0
14 09:35 SW 17 G 26 16.09 Fair CLR 28.2 21.8 68% 31 76.63 0.0
14 09:15 SW 17 16.09 Fair CLR 27.5 22.1 72% 30 76.63 0.0
14 08:55 SW 19 16.09 Fair CLR 27.2 22.4 75% 30 76.63 0.0
14 08:35 S 15 16.09 Fair CLR 26.6 22.6 79% 29 76.63 0.0
14 08:15 S 13 16.09 Fair CLR 25.9 22.7 83% 28 76.63 0.0
14 07:55 S 15 16.09 Fair CLR 25.1 23 88% 26 76.61 0.0
14 07:35 S 9 16.09 Fair CLR 24.3 23.2 94% 24 76.61 0.0
14 07:15 S 6 16.09 Fair CLR 23.6 23.5 99% 76.58 0.0
14 06:55 S 6 16.09 Fair CLR 23.1 23.1 26.3 23.1 100% 76.58 0.0
14 06:35 S 7 16.09 Fair CLR 23.5 23.5 100% 76.58 0.0
14 06:15 S 7 16.09 Fair CLR 23.5 23.3 99% 76.56 0.0
14 05:55 S 9 16.09 Fair CLR 23.5 23.2 98% 76.56 0.0
14 05:35 S 9 16.09 Fair CLR 23.8 23.1 96% 76.56 0.0
14 05:15 S 9 16.09 Fair CLR 24 22.9 94% 23 76.53 0.0
14 04:55 S 9 16.09 Fair CLR 24 22.6 92% 23 76.53 0.0
14 04:35 S 9 16.09 Fair CLR 24.1 22.5 91% 24 76.53 0.0
14 04:15 S 9 16.09 Fair CLR 24.4 22.3 88% 24 76.53 0.0
14 03:55 S 11 16.09 Fair CLR 24.6 22.1 86% 25 76.53 0.0
14 03:35 S 11 16.09 Fair CLR 24.6 22.1 86% 25 76.5 0.0
14 03:15 S 11 16.09 Fair CLR 25 22 83% 26 76.53 0.0
14 02:55 S 11 16.09 Fair CLR 25.1 22 83% 26 76.53 0.0
14 02:35 S 9 16.09 Fair CLR 25.5 21.8 80% 27 76.53 0.0
14 02:15 S 9 16.09 Fair CLR 25.8 21.5 77% 27 76.56 0.0
14 01:55 S 13 16.09 Fair CLR 26 21.5 76% 28 76.56 0.0
14 01:35 S 11 16.09 Fair CLR 26.2 21.5 75% 28 76.56 0.0
14 01:15 S 11 16.09 Fair CLR 26 21.7 77% 28 76.56 0.0
14 00:55 S 7 16.09 Fair CLR 26.1 21.5 33.5 26.1 76% 28 76.56 0.0
14 00:35 S 11 16.09 Fair CLR 26.5 21.1 72% 28 76.56 0.0
14 00:15 S 11 16.09 Fair CLR 26.7 20.7 70% 28 76.56 0.0
13 23:55 S 13 16.09 Fair CLR 27 20.5 68% 29 76.56 0.0
13 23:35 S 13 16.09 Fair CLR 27.5 20.5 66% 29 76.56 0.0
13 23:15 S 11 16.09 Fair CLR 27.6 20.3 65% 29 76.56 0.0
13 22:55 S 15 16.09 Fair CLR 27.9 20.3 63% 30 76.53 0.0
13 22:35 S 17 16.09 Fair CLR 28.2 20.5 63% 30 76.53 0.0
13 22:15 S 19 16.09 Fair CLR 28.8 20.6 61% 31 76.53 0.0
13 21:55 S 24 G 30 16.09 Fair CLR 29.2 21 61% 32 76.5 0.0
13 21:35 S 22 16.09 Fair CLR 29.8 21 59% 32 76.5 0.0
13 21:15 S 17 G 26 16.09 Fair CLR 30.1 19.5 53% 32 76.5 0.0
13 20:55 S 11 16.09 Fair CLR 30.5 19.1 51% 32 76.48 0.0
13 20:35 S 13 16.09 Fair CLR 31.2 18.9 48% 33 76.48 0.0
13 20:15 S 15 16.09 Fair CLR 31.9 18.5 45% 33 76.48 0.0
13 19:55 S 13 16.09 Fair CLR 32.5 18.2 43% 34 76.48 0.0
13 19:35 S 15 16.09 Fair CLR 32.9 18.1 41% 34 76.48 0.0
13 19:15 S 17 G 26 16.09 Fair CLR 33.3 18.3 41% 34 76.48 0.0
13 18:55 S 19 16.09 Fair CLR 33.5 18.3 34.6 32.4 40% 35 76.45 0.0
13 18:35 S 15 16.09 Fair CLR 33.7 18.5 41% 35 76.45 0.0
13 18:15 SE 20 16.09 Fair CLR 34.1 18.9 41% 36 76.48 0.0
13 17:55 S 13 16.09 Fair CLR 34.2 19 41% 36 76.48 0.0
13 17:35 S 19 16.09 Fair CLR 34.1 19.2 41% 36 76.48 0.0
13 17:15 S 20 16.09 Partly Cloudy SCT060 SCT070 34.1 19.2 41% 36 76.48 0.0
13 16:55 SE 15 16.09 Partly Cloudy SCT060 SCT070 34.5 19.4 41% 37 76.48 0.0
13 16:35 S 9 16.09 Partly Cloudy SCT065 SCT070 34.1 19.1 41% 36 76.5 0.0
13 16:15 S 19 G 30 16.09 Partly Cloudy SCT065 34.1 19.3 42% 36 76.5 0.0
13 15:55 S 17 G 28 16.09 Partly Cloudy SCT060 33.7 19.4 43% 36 76.53 0.0
13 15:35 SW 15 16.09 Partly Cloudy SCT060 34.3 18.3 39% 36 76.53 0.0
13 15:15 S 13 16.09 Partly Cloudy SCT060 34.3 18.7 40% 36 76.53 0.0
13 14:55 SW 15 G 26 16.09 Partly Cloudy SCT060 33.9 18.4 40% 35 76.56 0.0
13 14:35 S 15 16.09 Mostly Cloudy BKN050 32.6 18.4 43% 34 76.58 0.0
13 14:15 SW 22 16.09 Partly Cloudy SCT050 33 18.8 43% 34 76.61 0.0
13 13:55 SW 9 G 26 16.09 Partly Cloudy SCT050 33.1 18.6 42% 34 76.61 0.0
13 13:35 S 20 G 30 16.09 Partly Cloudy SCT050 32.8 18.8 43% 34 76.63 0.0
13 13:15 S 19 G 31 16.09 Partly Cloudy SCT048 32.9 19.3 45% 35 76.63 0.0
13 12:55 SW 15 G 28 16.09 Fair CLR 32.6 19.3 32.6 22 45% 34 76.63 0.0
13 12:35 S 19 G 28 16.09 Partly Cloudy SCT044 32.2 19.5 47% 34 76.66 0.0
13 12:15 S 9 G 26 16.09 Fair CLR 31.6 19.9 50% 34 76.66 0.0
13 11:55 S 9 16.09 Fair CLR 31.1 20.2 52% 33 76.68 0.0
13 11:35 S 19 16.09 Fair CLR 30.8 20.2 53% 33 76.68 0.0
13 11:15 S 15 16.09 Fair CLR 30.1 20.5 56% 32 76.68 0.0
13 10:55 SW 13 16.09 Fair CLR 29.6 20.4 58% 32 76.68 0.0
13 10:35 S 17 16.09 Fair CLR 29.3 20.6 59% 31 76.68 0.0
13 10:15 S 13 16.09 Fair CLR 28.6 20.4 61% 31 76.68 0.0
13 09:55 S 17 16.09 Fair CLR 28 20.5 64% 30 76.68 0.0
13 09:35 S 11 16.09 Fair CLR 27.4 20.5 66% 29 76.68 0.0
13 09:15 S 17 16.09 Fair CLR 26.7 20.8 70% 28 76.68 0.0
13 08:35 S 17 16.09 Fair CLR 25.1 21.3 80% 26 76.68 0.0
13 08:15 S 11 16.09 Fair CLR 24.4 21.8 85% 25 76.68 0.0
13 07:55 S 9 16.09 Fair CLR 23.4 22.3 94% 76.66 0.0
13 07:35 S 6 16.09 Fair CLR 22.7 22.7 100% 76.66 0.0
13 07:15 Calm 16.09 Fair CLR 22.2 22.2 100% 76.66 0.0
13 06:55 Calm 16.09 Fair CLR 22 22 25.9 21.8 100% 76.63 0.0
13 06:35 Calm 16.09 Fair CLR 21.8 21.8 100% 76.63 0.0
13 06:15 Calm 16.09 Fair CLR 22 22 100% 76.63 0.0
13 05:55 S 6 16.09 Fair CLR 22 22 100% 76.61 0.0
13 05:35 Calm 16.09 Fair CLR 22.3 21.8 97% 76.58 0.0
13 05:15 Calm 16.09 Fair CLR 22.1 21.7 98% 76.58 0.0
13 04:55 S 6 16.09 Fair CLR 22.2 21.8 98% 76.56 0.0
13 04:35 S 9 16.09 Fair CLR 22.3 21.7 96% 76.53 0.0
13 04:15 S 7 16.09 Fair CLR 22.5 21.5 94% 76.53 0.0
13 03:55 S 7 16.09 Fair CLR 22.8 20.9 89% 76.53 0.0
13 03:35 S 6 16.09 Fair CLR 23 20.5 86% 76.53 0.0
13 03:15 S 7 16.09 Fair CLR 23.2 20.1 83% 76.53 0.0
13 02:55 S 7 16.09 Fair CLR 23.6 19.8 79% 76.53 0.0
13 02:35 S 7 16.09 Fair CLR 24 19.5 76% 25 76.53 0.0
13 02:15 S 9 16.09 Fair CLR 24 19.3 75% 25 76.53 0.0
13 01:55 S 7 16.09 Fair CLR 24.6 19.1 72% 25 76.53 0.0
13 01:35 S 11 16.09 Fair CLR 25 19 69% 26 76.53 0.0
13 01:15 S 11 16.09 Fair CLR 25.5 18.8 67% 27 76.53 0.0
13 00:55 S 11 16.09 Fair CLR 26 18.7 33.9 26 64% 27 76.53 0.0
13 00:35 S 13 16.09 Fair CLR 26.3 18.7 63% 27 76.5 0.0
13 00:15 S 13 16.09 Fair CLR 26.6 18.7 62% 28 76.5 0.0
12 23:55 S 15 16.09 Fair CLR 26.9 19.1 62% 28 76.5 0.0
12 23:35 S 11 16.09 Fair CLR 27 19.5 64% 28 76.5 0.0
12 23:15 S 11 16.09 Fair CLR 27.8 19.6 61% 29 76.48 0.0
12 22:55 S 17 16.09 Fair CLR 28.3 19.7 60% 30 76.48 0.0
12 22:35 S 17 16.09 Fair CLR 28.7 20 59% 30 76.45 0.0
12 22:15 S 15 16.09 Fair CLR 28.7 20 59% 30 76.45 0.0
12 21:55 S 9 16.09 Fair CLR 28 19.1 58% 29 76.43 0.0
12 21:35 S 9 16.09 Fair CLR 28.5 19 56% 30 76.4 0.0
12 21:15 SE 7 16.09 Fair CLR 29.1 18.8 54% 30 76.38 0.0
12 20:55 S 11 16.09 Fair CLR 30.1 18 48% 31 76.38 0.0
12 20:35 S 9 16.09 Fair CLR 30.8 17.2 44% 31 76.38 0.0
12 20:15 S 11 16.09 Fair CLR 31.6 17 42% 32 76.38 0.0
12 19:55 S 15 16.09 Fair CLR 32.5 16.8 39% 33 76.38 0.0
12 19:35 S 19 16.09 Fair CLR 33.1 16.3 36% 33 76.35 0.0
12 19:15 S 15 16.09 Fair CLR 33.5 16.1 35% 34 76.35 0.0
12 18:55 S 17 G 28 16.09 Fair CLR 33.9 15.8 34.9 32.7 34% 34 76.35 0.0
12 18:35 S 19 16.09 Fair CLR 34.1 16.2 34% 34 76.35 0.0
12 18:15 S 19 G 28 16.09 Fair CLR 34.2 16.6 35% 35 76.35 0.0
12 17:55 S 20 16.09 Fair CLR 34.5 16.6 34% 35 76.35 0.0
12 17:35 S 22 G 30 16.09 Fair CLR 34.7 17 35% 35 76.35 0.0
12 17:15 S 17 G 30 16.09 Fair CLR 34.8 16.9 34% 35 76.35 0.0
12 16:55 SE 20 G 26 16.09 Fair CLR 34.7 16.3 33% 35 76.38 0.0
12 16:35 SE 20 G 26 16.09 Fair CLR 34.6 16.6 34% 35 76.38 0.0
12 16:15 SE 17 G 26 16.09 Fair CLR 34.8 15.9 32% 35 76.4 0.0
12 15:55 S 15 16.09 Fair CLR 34.5 16.8 35% 35 76.4 0.0
12 15:35 S 19 G 35 16.09 Fair CLR 34.3 16.5 34% 35 76.4 0.0
12 15:15 SE 17 16.09 Fair CLR 34.4 16.7 35% 35 76.4 0.0
12 14:55 SE 19 G 31 16.09 Fair CLR 34.2 17 36% 35 76.4 0.0
12 14:35 SE 17 16.09 Fair CLR 34.1 16.5 35% 34 76.43 0.0
12 14:15 SE 13 16.09 Partly Cloudy SCT120 34.2 17.3 37% 35 76.45 0.0
12 13:55 S 19 16.09 Partly Cloudy SCT120 33.4 17.1 38% 34 76.45 0.0
12 13:35 S 13 G 33 16.09 Fair CLR 33.8 17.6 38% 35 76.45 0.0
12 13:15 S 13 G 26 16.09 Partly Cloudy SCT060 33.6 17.2 38% 34 76.48 0.0
12 12:55 SW 17 G 31 16.09 Partly Cloudy SCT060 33.2 17.4 33.6 22.6 39% 34 76.5 0.0
12 12:35 S 17 16.09 Fair CLR 33.6 17.3 38% 34 76.5 0.0
12 12:15 S 19 16.09 Partly Cloudy SCT120 33.3 18 40% 34 76.5 0.0
12 11:55 SW 15 16.09 Partly Cloudy SCT120 32.8 17.5 40% 33 76.5 0.0
12 11:35 S 19 G 30 16.09 Fair CLR 32.5 17.1 40% 33 76.5 0.0
12 11:15 S 20 G 28 16.09 Fair CLR 32.3 17.8 42% 33 76.5 0.0
12 10:55 S 22 16.09 Fair CLR 31.8 18 44% 33 76.5 0.0
12 10:35 S 24 G 33 16.09 Fair CLR 31.2 18.9 48% 33 76.48 0.0
12 10:15 S 24 16.09 Fair CLR 30.7 19.4 51% 32 76.48 0.0
12 09:55 SW 24 G 30 16.09 Fair CLR 30.5 19.6 52% 32 76.48 0.0
12 09:35 SW 17 G 26 16.09 Fair CLR 29.7 20.2 57% 32 76.5 0.0
12 09:15 SW 17 16.09 Fair CLR 29 20.6 61% 31 76.5 0.0
12 08:55 S 17 16.09 Fair CLR 27.9 20.7 65% 30 76.48 0.0
12 08:35 S 13 16.09 Fair CLR 26.7 20.4 68% 28 76.48 0.0
12 08:15 S 9 16.09 Fair CLR 25.6 20.1 72% 27 76.48 0.0
12 07:55 S 6 16.09 Fair CLR 24.7 19.8 74% 26 76.45 0.0
12 07:35 Calm 16.09 Fair CLR 23.8 20 79% 76.43 0.0
12 07:15 Calm 16.09 Fair CLR 22.9 20 84% 76.43 0.0
Date Time (cdt) Wind (kph) Vis. (km) Weather Sky Cond. Air Dwpt Max. Min. Relative Humidity Wind Chill (°C) Heat Index (°C) altimeter (cm) sea level (mb) 1 hr 3 hr 6 hr
6 hour
Temperature (ºC) Pressure Precipitation (cm)